sensor_id;sensor_type;location;lat;lon;timestamp;P1;durP1;ratioP1;P2;durP2;ratioP2
77524;SDS011;66638;50.050;21.124;2023-09-19T00:00:36;9.30;;;5.90;;
77524;SDS011;66638;50.050;21.124;2023-09-19T00:03:39;8.00;;;5.80;;
77524;SDS011;66638;50.050;21.124;2023-09-19T00:06:29;8.00;;;6.00;;
77524;SDS011;66638;50.050;21.124;2023-09-19T00:09:18;8.40;;;6.40;;
77524;SDS011;66638;50.050;21.124;2023-09-19T00:12:05;8.30;;;6.30;;
77524;SDS011;66638;50.050;21.124;2023-09-19T00:14:53;11.00;;;6.20;;
77524;SDS011;66638;50.050;21.124;2023-09-19T00:17:40;8.20;;;5.50;;
77524;SDS011;66638;50.050;21.124;2023-09-19T00:20:28;8.70;;;6.70;;
77524;SDS011;66638;50.050;21.124;2023-09-19T00:23:19;8.70;;;6.10;;
77524;SDS011;66638;50.050;21.124;2023-09-19T00:26:06;9.80;;;6.30;;
77524;SDS011;66638;50.050;21.124;2023-09-19T00:28:53;10.40;;;6.20;;
77524;SDS011;66638;50.050;21.124;2023-09-19T00:31:40;9.30;;;6.50;;
77524;SDS011;66638;50.050;21.124;2023-09-19T00:34:27;9.40;;;5.40;;
77524;SDS011;66638;50.050;21.124;2023-09-19T00:37:14;8.80;;;5.70;;
77524;SDS011;66638;50.050;21.124;2023-09-19T00:40:02;7.70;;;6.10;;
77524;SDS011;66638;50.050;21.124;2023-09-19T00:42:52;7.50;;;5.80;;
77524;SDS011;66638;50.050;21.124;2023-09-19T00:45:48;13.70;;;6.50;;
77524;SDS011;66638;50.050;21.124;2023-09-19T00:48:41;9.60;;;6.10;;
77524;SDS011;66638;50.050;21.124;2023-09-19T00:51:30;9.10;;;6.40;;
77524;SDS011;66638;50.050;21.124;2023-09-19T00:54:17;9.10;;;6.30;;
77524;SDS011;66638;50.050;21.124;2023-09-19T00:57:05;7.30;;;6.50;;
77524;SDS011;66638;50.050;21.124;2023-09-19T00:59:52;6.90;;;5.80;;
77524;SDS011;66638;50.050;21.124;2023-09-19T01:02:43;8.00;;;6.10;;
77524;SDS011;66638;50.050;21.124;2023-09-19T01:05:31;8.40;;;6.00;;
77524;SDS011;66638;50.050;21.124;2023-09-19T01:08:20;9.60;;;6.10;;
77524;SDS011;66638;50.050;21.124;2023-09-19T01:14:20;8.30;;;6.20;;
77524;SDS011;66638;50.050;21.124;2023-09-19T01:17:20;7.50;;;6.30;;
77524;SDS011;66638;50.050;21.124;2023-09-19T01:20:17;8.50;;;6.50;;
77524;SDS011;66638;50.050;21.124;2023-09-19T01:23:23;8.40;;;6.10;;
77524;SDS011;66638;50.050;21.124;2023-09-19T01:29:45;8.50;;;6.00;;
77524;SDS011;66638;50.050;21.124;2023-09-19T01:32:34;6.90;;;5.70;;
77524;SDS011;66638;50.050;21.124;2023-09-19T01:35:21;7.10;;;5.90;;
77524;SDS011;66638;50.050;21.124;2023-09-19T01:38:08;8.00;;;6.10;;
77524;SDS011;66638;50.050;21.124;2023-09-19T01:41:03;7.70;;;5.80;;
77524;SDS011;66638;50.050;21.124;2023-09-19T01:43:54;8.20;;;6.50;;
77524;SDS011;66638;50.050;21.124;2023-09-19T01:46:42;6.90;;;5.60;;
77524;SDS011;66638;50.050;21.124;2023-09-19T01:49:36;9.30;;;5.90;;
77524;SDS011;66638;50.050;21.124;2023-09-19T01:52:28;9.00;;;6.50;;
77524;SDS011;66638;50.050;21.124;2023-09-19T01:55:20;9.70;;;6.60;;
77524;SDS011;66638;50.050;21.124;2023-09-19T02:01:30;9.60;;;6.10;;
77524;SDS011;66638;50.050;21.124;2023-09-19T02:04:18;8.50;;;6.10;;
77524;SDS011;66638;50.050;21.124;2023-09-19T02:07:05;11.00;;;6.30;;
77524;SDS011;66638;50.050;21.124;2023-09-19T02:09:52;7.70;;;5.90;;
77524;SDS011;66638;50.050;21.124;2023-09-19T02:12:40;9.10;;;5.90;;
77524;SDS011;66638;50.050;21.124;2023-09-19T02:15:27;8.00;;;5.50;;
77524;SDS011;66638;50.050;21.124;2023-09-19T02:18:15;7.80;;;5.70;;
77524;SDS011;66638;50.050;21.124;2023-09-19T02:21:02;8.20;;;5.40;;
77524;SDS011;66638;50.050;21.124;2023-09-19T02:23:50;9.70;;;5.90;;
77524;SDS011;66638;50.050;21.124;2023-09-19T02:26:38;7.30;;;6.00;;
77524;SDS011;66638;50.050;21.124;2023-09-19T02:29:26;8.80;;;6.70;;
77524;SDS011;66638;50.050;21.124;2023-09-19T02:32:13;9.00;;;6.40;;
77524;SDS011;66638;50.050;21.124;2023-09-19T02:35:01;7.90;;;5.90;;
77524;SDS011;66638;50.050;21.124;2023-09-19T02:37:50;8.90;;;5.80;;
77524;SDS011;66638;50.050;21.124;2023-09-19T02:40:37;9.00;;;6.00;;
77524;SDS011;66638;50.050;21.124;2023-09-19T02:43:25;7.90;;;4.90;;
77524;SDS011;66638;50.050;21.124;2023-09-19T02:46:12;11.70;;;6.70;;
77524;SDS011;66638;50.050;21.124;2023-09-19T02:49:00;9.50;;;6.10;;
77524;SDS011;66638;50.050;21.124;2023-09-19T02:51:47;8.80;;;7.00;;
77524;SDS011;66638;50.050;21.124;2023-09-19T02:54:34;14.20;;;7.10;;
77524;SDS011;66638;50.050;21.124;2023-09-19T02:57:21;8.40;;;5.90;;
77524;SDS011;66638;50.050;21.124;2023-09-19T03:00:10;8.40;;;5.50;;
77524;SDS011;66638;50.050;21.124;2023-09-19T03:02:59;7.90;;;5.80;;
77524;SDS011;66638;50.050;21.124;2023-09-19T03:05:47;8.20;;;5.10;;
77524;SDS011;66638;50.050;21.124;2023-09-19T03:08:35;8.10;;;5.60;;
77524;SDS011;66638;50.050;21.124;2023-09-19T03:11:23;10.70;;;6.90;;
77524;SDS011;66638;50.050;21.124;2023-09-19T03:14:13;10.50;;;6.70;;
77524;SDS011;66638;50.050;21.124;2023-09-19T03:17:02;9.80;;;6.60;;
77524;SDS011;66638;50.050;21.124;2023-09-19T03:19:52;8.00;;;6.50;;
77524;SDS011;66638;50.050;21.124;2023-09-19T03:22:41;7.10;;;5.90;;
77524;SDS011;66638;50.050;21.124;2023-09-19T03:25:29;7.40;;;5.90;;
77524;SDS011;66638;50.050;21.124;2023-09-19T03:28:16;7.90;;;5.40;;
77524;SDS011;66638;50.050;21.124;2023-09-19T03:31:04;9.80;;;6.20;;
77524;SDS011;66638;50.050;21.124;2023-09-19T03:33:54;8.50;;;6.30;;
77524;SDS011;66638;50.050;21.124;2023-09-19T03:36:42;8.90;;;6.00;;
77524;SDS011;66638;50.050;21.124;2023-09-19T03:39:29;8.50;;;6.50;;
77524;SDS011;66638;50.050;21.124;2023-09-19T03:42:16;11.60;;;6.80;;
77524;SDS011;66638;50.050;21.124;2023-09-19T03:45:04;6.80;;;5.40;;
77524;SDS011;66638;50.050;21.124;2023-09-19T03:47:53;9.70;;;6.10;;
77524;SDS011;66638;50.050;21.124;2023-09-19T03:50:41;9.30;;;6.50;;
77524;SDS011;66638;50.050;21.124;2023-09-19T03:53:31;8.60;;;7.10;;
77524;SDS011;66638;50.050;21.124;2023-09-19T03:56:18;8.70;;;6.20;;
77524;SDS011;66638;50.050;21.124;2023-09-19T03:59:05;10.00;;;5.60;;
77524;SDS011;66638;50.050;21.124;2023-09-19T04:01:52;7.20;;;5.30;;
77524;SDS011;66638;50.050;21.124;2023-09-19T04:04:42;8.30;;;5.50;;
77524;SDS011;66638;50.050;21.124;2023-09-19T04:07:30;8.60;;;6.50;;
77524;SDS011;66638;50.050;21.124;2023-09-19T04:10:45;8.00;;;6.40;;
77524;SDS011;66638;50.050;21.124;2023-09-19T04:13:32;10.50;;;6.30;;
77524;SDS011;66638;50.050;21.124;2023-09-19T04:16:19;7.70;;;5.60;;
77524;SDS011;66638;50.050;21.124;2023-09-19T04:19:06;8.90;;;5.00;;
77524;SDS011;66638;50.050;21.124;2023-09-19T04:21:54;6.50;;;5.20;;
77524;SDS011;66638;50.050;21.124;2023-09-19T04:24:41;9.10;;;6.30;;
77524;SDS011;66638;50.050;21.124;2023-09-19T04:27:29;7.00;;;5.10;;
77524;SDS011;66638;50.050;21.124;2023-09-19T04:30:16;7.80;;;4.30;;
77524;SDS011;66638;50.050;21.124;2023-09-19T04:33:03;7.80;;;5.20;;
77524;SDS011;66638;50.050;21.124;2023-09-19T04:35:52;7.20;;;5.20;;
77524;SDS011;66638;50.050;21.124;2023-09-19T04:38:40;5.60;;;4.70;;
77524;SDS011;66638;50.050;21.124;2023-09-19T04:41:27;8.60;;;5.60;;
77524;SDS011;66638;50.050;21.124;2023-09-19T04:44:14;7.60;;;5.10;;
77524;SDS011;66638;50.050;21.124;2023-09-19T04:47:02;6.70;;;4.70;;
77524;SDS011;66638;50.050;21.124;2023-09-19T04:49:49;6.60;;;4.80;;
77524;SDS011;66638;50.050;21.124;2023-09-19T04:52:39;6.20;;;5.40;;
77524;SDS011;66638;50.050;21.124;2023-09-19T04:55:28;7.30;;;5.70;;
77524;SDS011;66638;50.050;21.124;2023-09-19T04:58:17;6.90;;;5.10;;
77524;SDS011;66638;50.050;21.124;2023-09-19T05:01:06;8.20;;;5.20;;
77524;SDS011;66638;50.050;21.124;2023-09-19T05:03:58;7.90;;;4.40;;
77524;SDS011;66638;50.050;21.124;2023-09-19T05:06:45;6.70;;;5.20;;
77524;SDS011;66638;50.050;21.124;2023-09-19T05:09:32;6.40;;;5.30;;
77524;SDS011;66638;50.050;21.124;2023-09-19T05:12:21;7.20;;;5.70;;
77524;SDS011;66638;50.050;21.124;2023-09-19T05:15:09;8.90;;;6.20;;
77524;SDS011;66638;50.050;21.124;2023-09-19T05:17:56;7.30;;;5.00;;
77524;SDS011;66638;50.050;21.124;2023-09-19T05:20:43;7.10;;;5.10;;
77524;SDS011;66638;50.050;21.124;2023-09-19T05:23:31;7.70;;;5.10;;
77524;SDS011;66638;50.050;21.124;2023-09-19T05:26:19;7.00;;;6.00;;
77524;SDS011;66638;50.050;21.124;2023-09-19T05:29:07;7.00;;;5.50;;
77524;SDS011;66638;50.050;21.124;2023-09-19T05:31:54;5.50;;;4.20;;
77524;SDS011;66638;50.050;21.124;2023-09-19T05:34:41;8.60;;;4.70;;
77524;SDS011;66638;50.050;21.124;2023-09-19T05:37:28;7.00;;;5.20;;
77524;SDS011;66638;50.050;21.124;2023-09-19T05:40:17;9.50;;;5.80;;
77524;SDS011;66638;50.050;21.124;2023-09-19T05:43:05;7.80;;;5.90;;
77524;SDS011;66638;50.050;21.124;2023-09-19T05:45:52;8.70;;;6.20;;
77524;SDS011;66638;50.050;21.124;2023-09-19T05:48:39;9.30;;;6.20;;
77524;SDS011;66638;50.050;21.124;2023-09-19T05:51:28;6.60;;;4.60;;
77524;SDS011;66638;50.050;21.124;2023-09-19T05:54:15;10.10;;;6.40;;
77524;SDS011;66638;50.050;21.124;2023-09-19T05:57:06;9.30;;;6.90;;
77524;SDS011;66638;50.050;21.124;2023-09-19T05:59:54;8.90;;;6.90;;
77524;SDS011;66638;50.050;21.124;2023-09-19T06:02:41;10.00;;;6.30;;
77524;SDS011;66638;50.050;21.124;2023-09-19T06:05:32;7.70;;;5.30;;
77524;SDS011;66638;50.050;21.124;2023-09-19T06:08:19;6.60;;;5.20;;
77524;SDS011;66638;50.050;21.124;2023-09-19T06:11:06;10.10;;;6.60;;
77524;SDS011;66638;50.050;21.124;2023-09-19T06:13:54;8.40;;;6.40;;
77524;SDS011;66638;50.050;21.124;2023-09-19T06:16:42;9.70;;;8.40;;
77524;SDS011;66638;50.050;21.124;2023-09-19T06:19:30;9.00;;;6.80;;
77524;SDS011;66638;50.050;21.124;2023-09-19T06:22:17;9.20;;;6.00;;
77524;SDS011;66638;50.050;21.124;2023-09-19T06:25:05;9.60;;;6.30;;
77524;SDS011;66638;50.050;21.124;2023-09-19T06:27:52;8.20;;;6.80;;
77524;SDS011;66638;50.050;21.124;2023-09-19T06:30:41;8.50;;;5.80;;
77524;SDS011;66638;50.050;21.124;2023-09-19T06:33:29;11.50;;;7.80;;
77524;SDS011;66638;50.050;21.124;2023-09-19T06:36:18;8.90;;;7.80;;
77524;SDS011;66638;50.050;21.124;2023-09-19T06:39:06;8.10;;;6.70;;
77524;SDS011;66638;50.050;21.124;2023-09-19T06:41:57;7.20;;;6.00;;
77524;SDS011;66638;50.050;21.124;2023-09-19T06:44:45;10.70;;;6.80;;
77524;SDS011;66638;50.050;21.124;2023-09-19T06:47:32;7.80;;;7.00;;
77524;SDS011;66638;50.050;21.124;2023-09-19T06:50:20;8.60;;;6.60;;
77524;SDS011;66638;50.050;21.124;2023-09-19T06:53:09;13.40;;;8.10;;
77524;SDS011;66638;50.050;21.124;2023-09-19T06:55:57;10.90;;;7.90;;
77524;SDS011;66638;50.050;21.124;2023-09-19T06:58:45;10.60;;;7.50;;
77524;SDS011;66638;50.050;21.124;2023-09-19T07:01:32;7.70;;;6.70;;
77524;SDS011;66638;50.050;21.124;2023-09-19T07:04:20;9.50;;;7.00;;
77524;SDS011;66638;50.050;21.124;2023-09-19T07:07:08;10.00;;;8.10;;
77524;SDS011;66638;50.050;21.124;2023-09-19T07:09:57;11.20;;;7.70;;
77524;SDS011;66638;50.050;21.124;2023-09-19T07:12:44;15.20;;;9.00;;
77524;SDS011;66638;50.050;21.124;2023-09-19T07:15:32;8.60;;;7.60;;
77524;SDS011;66638;50.050;21.124;2023-09-19T07:18:23;8.70;;;7.80;;
77524;SDS011;66638;50.050;21.124;2023-09-19T07:21:10;9.90;;;7.10;;
77524;SDS011;66638;50.050;21.124;2023-09-19T07:24:02;7.90;;;6.50;;
77524;SDS011;66638;50.050;21.124;2023-09-19T07:26:51;11.10;;;8.10;;
77524;SDS011;66638;50.050;21.124;2023-09-19T07:29:38;11.10;;;8.80;;
77524;SDS011;66638;50.050;21.124;2023-09-19T07:32:26;10.70;;;8.70;;
77524;SDS011;66638;50.050;21.124;2023-09-19T07:35:13;11.40;;;8.40;;
77524;SDS011;66638;50.050;21.124;2023-09-19T07:38:01;13.10;;;8.60;;
77524;SDS011;66638;50.050;21.124;2023-09-19T07:40:49;10.10;;;7.70;;
77524;SDS011;66638;50.050;21.124;2023-09-19T07:43:37;9.20;;;7.10;;
77524;SDS011;66638;50.050;21.124;2023-09-19T07:46:27;10.40;;;8.30;;
77524;SDS011;66638;50.050;21.124;2023-09-19T07:49:14;8.20;;;7.30;;
77524;SDS011;66638;50.050;21.124;2023-09-19T07:52:02;9.40;;;7.50;;
77524;SDS011;66638;50.050;21.124;2023-09-19T07:54:49;9.50;;;7.50;;
77524;SDS011;66638;50.050;21.124;2023-09-19T07:57:37;10.40;;;6.40;;
77524;SDS011;66638;50.050;21.124;2023-09-19T08:00:24;10.00;;;5.80;;
77524;SDS011;66638;50.050;21.124;2023-09-19T08:03:11;10.40;;;7.00;;
77524;SDS011;66638;50.050;21.124;2023-09-19T08:06:02;8.90;;;7.60;;
77524;SDS011;66638;50.050;21.124;2023-09-19T08:08:50;9.30;;;6.80;;
77524;SDS011;66638;50.050;21.124;2023-09-19T08:11:41;8.40;;;6.20;;
77524;SDS011;66638;50.050;21.124;2023-09-19T08:14:29;7.50;;;6.30;;
77524;SDS011;66638;50.050;21.124;2023-09-19T08:17:16;10.10;;;7.30;;
77524;SDS011;66638;50.050;21.124;2023-09-19T08:20:03;8.30;;;7.50;;
77524;SDS011;66638;50.050;21.124;2023-09-19T08:22:53;10.20;;;6.20;;
77524;SDS011;66638;50.050;21.124;2023-09-19T08:25:43;9.60;;;5.70;;
77524;SDS011;66638;50.050;21.124;2023-09-19T08:28:32;6.30;;;4.90;;
77524;SDS011;66638;50.050;21.124;2023-09-19T08:31:20;6.90;;;5.70;;
77524;SDS011;66638;50.050;21.124;2023-09-19T08:34:07;9.40;;;6.90;;
77524;SDS011;66638;50.050;21.124;2023-09-19T08:36:55;7.80;;;6.30;;
77524;SDS011;66638;50.050;21.124;2023-09-19T08:39:45;5.90;;;4.50;;
77524;SDS011;66638;50.050;21.124;2023-09-19T08:42:46;7.50;;;4.70;;
77524;SDS011;66638;50.050;21.124;2023-09-19T08:45:36;7.00;;;5.80;;
77524;SDS011;66638;50.050;21.124;2023-09-19T08:48:25;10.00;;;7.60;;
77524;SDS011;66638;50.050;21.124;2023-09-19T08:51:18;8.00;;;6.40;;
77524;SDS011;66638;50.050;21.124;2023-09-19T08:54:20;7.00;;;5.90;;
77524;SDS011;66638;50.050;21.124;2023-09-19T08:57:09;8.10;;;5.70;;
77524;SDS011;66638;50.050;21.124;2023-09-19T08:59:58;7.70;;;6.20;;
77524;SDS011;66638;50.050;21.124;2023-09-19T09:02:46;7.50;;;5.90;;
77524;SDS011;66638;50.050;21.124;2023-09-19T09:05:34;6.40;;;5.60;;
77524;SDS011;66638;50.050;21.124;2023-09-19T09:08:23;8.90;;;5.70;;
77524;SDS011;66638;50.050;21.124;2023-09-19T09:11:11;6.30;;;5.00;;
77524;SDS011;66638;50.050;21.124;2023-09-19T09:13:59;6.70;;;5.10;;
77524;SDS011;66638;50.050;21.124;2023-09-19T09:16:47;6.20;;;4.30;;
77524;SDS011;66638;50.050;21.124;2023-09-19T09:19:35;8.60;;;6.30;;
77524;SDS011;66638;50.050;21.124;2023-09-19T09:22:23;8.30;;;5.70;;
77524;SDS011;66638;50.050;21.124;2023-09-19T09:25:10;5.80;;;4.80;;
77524;SDS011;66638;50.050;21.124;2023-09-19T09:28:01;8.10;;;6.90;;
77524;SDS011;66638;50.050;21.124;2023-09-19T09:30:49;8.90;;;6.20;;
77524;SDS011;66638;50.050;21.124;2023-09-19T09:33:37;8.40;;;7.00;;
77524;SDS011;66638;50.050;21.124;2023-09-19T09:36:33;9.30;;;5.50;;
77524;SDS011;66638;50.050;21.124;2023-09-19T09:39:31;7.60;;;5.50;;
77524;SDS011;66638;50.050;21.124;2023-09-19T09:42:29;8.10;;;5.60;;
77524;SDS011;66638;50.050;21.124;2023-09-19T09:45:22;8.00;;;5.60;;
77524;SDS011;66638;50.050;21.124;2023-09-19T09:48:30;7.20;;;5.80;;
77524;SDS011;66638;50.050;21.124;2023-09-19T09:54:29;7.80;;;5.70;;
77524;SDS011;66638;50.050;21.124;2023-09-19T09:57:23;7.10;;;5.50;;
77524;SDS011;66638;50.050;21.124;2023-09-19T10:00:12;8.10;;;6.40;;
77524;SDS011;66638;50.050;21.124;2023-09-19T10:03:09;8.20;;;6.20;;
77524;SDS011;66638;50.050;21.124;2023-09-19T10:06:12;6.40;;;4.80;;
77524;SDS011;66638;50.050;21.124;2023-09-19T10:09:14;6.00;;;4.10;;
77524;SDS011;66638;50.050;21.124;2023-09-19T10:12:07;5.90;;;4.80;;
77524;SDS011;66638;50.050;21.124;2023-09-19T10:14:56;6.50;;;5.00;;
77524;SDS011;66638;50.050;21.124;2023-09-19T10:17:45;5.70;;;5.00;;
77524;SDS011;66638;50.050;21.124;2023-09-19T10:20:33;6.50;;;5.40;;
77524;SDS011;66638;50.050;21.124;2023-09-19T10:23:23;6.80;;;5.20;;
77524;SDS011;66638;50.050;21.124;2023-09-19T10:26:12;6.60;;;4.80;;
77524;SDS011;66638;50.050;21.124;2023-09-19T10:29:05;6.80;;;6.00;;
77524;SDS011;66638;50.050;21.124;2023-09-19T10:31:53;6.90;;;5.60;;
77524;SDS011;66638;50.050;21.124;2023-09-19T10:34:41;5.50;;;4.20;;
77524;SDS011;66638;50.050;21.124;2023-09-19T10:37:30;5.90;;;4.80;;
77524;SDS011;66638;50.050;21.124;2023-09-19T10:40:18;7.70;;;6.00;;
77524;SDS011;66638;50.050;21.124;2023-09-19T10:43:15;9.00;;;5.70;;
77524;SDS011;66638;50.050;21.124;2023-09-19T10:46:07;8.00;;;6.30;;
77524;SDS011;66638;50.050;21.124;2023-09-19T10:48:59;7.30;;;6.00;;
77524;SDS011;66638;50.050;21.124;2023-09-19T10:51:49;8.60;;;6.60;;
77524;SDS011;66638;50.050;21.124;2023-09-19T10:54:41;9.90;;;7.30;;
77524;SDS011;66638;50.050;21.124;2023-09-19T10:57:37;8.20;;;7.30;;
77524;SDS011;66638;50.050;21.124;2023-09-19T11:00:25;9.30;;;6.80;;
77524;SDS011;66638;50.050;21.124;2023-09-19T11:03:16;9.60;;;8.00;;
77524;SDS011;66638;50.050;21.124;2023-09-19T11:06:16;12.40;;;8.00;;
77524;SDS011;66638;50.050;21.124;2023-09-19T11:09:05;11.30;;;8.00;;
77524;SDS011;66638;50.050;21.124;2023-09-19T11:12:09;9.10;;;8.00;;
77524;SDS011;66638;50.050;21.124;2023-09-19T11:14:56;8.80;;;6.90;;
77524;SDS011;66638;50.050;21.124;2023-09-19T11:17:44;10.80;;;6.40;;
77524;SDS011;66638;50.050;21.124;2023-09-19T11:20:33;8.20;;;6.00;;
77524;SDS011;66638;50.050;21.124;2023-09-19T11:23:28;9.30;;;5.20;;
77524;SDS011;66638;50.050;21.124;2023-09-19T11:29:34;8.00;;;4.80;;
77524;SDS011;66638;50.050;21.124;2023-09-19T11:32:56;6.30;;;4.70;;
77524;SDS011;66638;50.050;21.124;2023-09-19T11:39:02;6.30;;;4.40;;
77524;SDS011;66638;50.050;21.124;2023-09-19T11:41:55;6.20;;;4.80;;
77524;SDS011;66638;50.050;21.124;2023-09-19T11:44:43;9.70;;;6.70;;
77524;SDS011;66638;50.050;21.124;2023-09-19T11:47:30;8.00;;;5.60;;
77524;SDS011;66638;50.050;21.124;2023-09-19T11:50:19;8.20;;;6.70;;
77524;SDS011;66638;50.050;21.124;2023-09-19T11:53:07;7.60;;;6.00;;
77524;SDS011;66638;50.050;21.124;2023-09-19T11:55:57;10.10;;;6.60;;
77524;SDS011;66638;50.050;21.124;2023-09-19T11:58:49;9.10;;;6.30;;
77524;SDS011;66638;50.050;21.124;2023-09-19T12:01:42;10.00;;;7.00;;
77524;SDS011;66638;50.050;21.124;2023-09-19T12:04:35;12.30;;;8.50;;
77524;SDS011;66638;50.050;21.124;2023-09-19T12:07:28;11.80;;;8.80;;
77524;SDS011;66638;50.050;21.124;2023-09-19T12:10:20;12.20;;;8.80;;
77524;SDS011;66638;50.050;21.124;2023-09-19T12:13:09;11.30;;;8.30;;
77524;SDS011;66638;50.050;21.124;2023-09-19T12:15:59;10.40;;;8.40;;
77524;SDS011;66638;50.050;21.124;2023-09-19T12:18:48;10.50;;;8.50;;
77524;SDS011;66638;50.050;21.124;2023-09-19T12:21:36;14.00;;;9.30;;
77524;SDS011;66638;50.050;21.124;2023-09-19T12:24:24;14.00;;;9.60;;
77524;SDS011;66638;50.050;21.124;2023-09-19T12:27:13;11.80;;;8.80;;
77524;SDS011;66638;50.050;21.124;2023-09-19T12:30:01;8.40;;;7.00;;
77524;SDS011;66638;50.050;21.124;2023-09-19T12:32:52;10.70;;;8.20;;
77524;SDS011;66638;50.050;21.124;2023-09-19T12:35:40;8.70;;;7.30;;
77524;SDS011;66638;50.050;21.124;2023-09-19T12:38:28;11.20;;;7.60;;
77524;SDS011;66638;50.050;21.124;2023-09-19T12:41:15;7.50;;;6.50;;
77524;SDS011;66638;50.050;21.124;2023-09-19T12:44:02;10.70;;;7.50;;
77524;SDS011;66638;50.050;21.124;2023-09-19T12:46:56;7.70;;;5.80;;
77524;SDS011;66638;50.050;21.124;2023-09-19T12:52:54;8.30;;;6.10;;
77524;SDS011;66638;50.050;21.124;2023-09-19T12:55:43;7.20;;;5.00;;
77524;SDS011;66638;50.050;21.124;2023-09-19T12:58:30;7.10;;;5.30;;
77524;SDS011;66638;50.050;21.124;2023-09-19T13:01:19;10.30;;;5.50;;
77524;SDS011;66638;50.050;21.124;2023-09-19T13:04:12;10.90;;;5.50;;
77524;SDS011;66638;50.050;21.124;2023-09-19T13:07:07;9.50;;;5.30;;
77524;SDS011;66638;50.050;21.124;2023-09-19T13:10:02;9.10;;;4.60;;
77524;SDS011;66638;50.050;21.124;2023-09-19T13:12:51;8.40;;;5.10;;
77524;SDS011;66638;50.050;21.124;2023-09-19T13:15:51;6.40;;;5.30;;
77524;SDS011;66638;50.050;21.124;2023-09-19T13:18:42;6.60;;;4.60;;
77524;SDS011;66638;50.050;21.124;2023-09-19T13:24:32;7.00;;;4.70;;
77524;SDS011;66638;50.050;21.124;2023-09-19T13:27:22;7.00;;;5.20;;
77524;SDS011;66638;50.050;21.124;2023-09-19T13:30:09;5.60;;;5.00;;
77524;SDS011;66638;50.050;21.124;2023-09-19T13:33:05;6.80;;;5.70;;
77524;SDS011;66638;50.050;21.124;2023-09-19T13:35:57;9.20;;;5.90;;
77524;SDS011;66638;50.050;21.124;2023-09-19T13:38:44;9.30;;;5.90;;
77524;SDS011;66638;50.050;21.124;2023-09-19T13:41:32;7.60;;;6.80;;
77524;SDS011;66638;50.050;21.124;2023-09-19T13:44:20;6.30;;;5.20;;
77524;SDS011;66638;50.050;21.124;2023-09-19T13:47:07;8.80;;;6.70;;
77524;SDS011;66638;50.050;21.124;2023-09-19T13:50:01;12.20;;;8.80;;
77524;SDS011;66638;50.050;21.124;2023-09-19T13:52:51;10.00;;;7.70;;
77524;SDS011;66638;50.050;21.124;2023-09-19T13:55:38;9.10;;;6.60;;
77524;SDS011;66638;50.050;21.124;2023-09-19T13:58:25;7.40;;;6.00;;
77524;SDS011;66638;50.050;21.124;2023-09-19T14:01:13;7.10;;;5.40;;
77524;SDS011;66638;50.050;21.124;2023-09-19T14:04:01;7.60;;;5.60;;
77524;SDS011;66638;50.050;21.124;2023-09-19T14:06:49;8.50;;;5.70;;
77524;SDS011;66638;50.050;21.124;2023-09-19T14:09:36;8.40;;;6.50;;
77524;SDS011;66638;50.050;21.124;2023-09-19T14:12:24;7.00;;;6.30;;
77524;SDS011;66638;50.050;21.124;2023-09-19T14:15:11;6.60;;;4.80;;
77524;SDS011;66638;50.050;21.124;2023-09-19T14:17:59;8.20;;;6.80;;
77524;SDS011;66638;50.050;21.124;2023-09-19T14:20:47;7.90;;;6.50;;
77524;SDS011;66638;50.050;21.124;2023-09-19T14:23:35;8.90;;;6.10;;
77524;SDS011;66638;50.050;21.124;2023-09-19T14:26:23;9.20;;;5.50;;
77524;SDS011;66638;50.050;21.124;2023-09-19T14:29:11;8.70;;;6.20;;
77524;SDS011;66638;50.050;21.124;2023-09-19T14:31:58;6.50;;;5.50;;
77524;SDS011;66638;50.050;21.124;2023-09-19T14:34:46;7.70;;;5.70;;
77524;SDS011;66638;50.050;21.124;2023-09-19T14:37:34;8.70;;;6.30;;
77524;SDS011;66638;50.050;21.124;2023-09-19T14:40:22;9.10;;;6.30;;
77524;SDS011;66638;50.050;21.124;2023-09-19T14:43:13;6.10;;;4.80;;
77524;SDS011;66638;50.050;21.124;2023-09-19T14:46:03;8.00;;;5.60;;
77524;SDS011;66638;50.050;21.124;2023-09-19T14:48:52;5.40;;;4.70;;
77524;SDS011;66638;50.050;21.124;2023-09-19T14:51:39;7.30;;;6.30;;
77524;SDS011;66638;50.050;21.124;2023-09-19T14:54:28;7.20;;;5.30;;
77524;SDS011;66638;50.050;21.124;2023-09-19T14:57:16;6.40;;;5.00;;
77524;SDS011;66638;50.050;21.124;2023-09-19T15:00:04;7.20;;;5.20;;
77524;SDS011;66638;50.050;21.124;2023-09-19T15:02:53;6.90;;;5.20;;
77524;SDS011;66638;50.050;21.124;2023-09-19T15:05:42;5.40;;;4.80;;
77524;SDS011;66638;50.050;21.124;2023-09-19T15:08:31;7.20;;;5.00;;
77524;SDS011;66638;50.050;21.124;2023-09-19T15:11:23;5.70;;;4.70;;
77524;SDS011;66638;50.050;21.124;2023-09-19T15:14:10;7.00;;;5.70;;
77524;SDS011;66638;50.050;21.124;2023-09-19T15:16:57;7.30;;;5.60;;
77524;SDS011;66638;50.050;21.124;2023-09-19T15:19:44;5.50;;;4.70;;
77524;SDS011;66638;50.050;21.124;2023-09-19T15:22:35;10.10;;;5.20;;
77524;SDS011;66638;50.050;21.124;2023-09-19T15:25:23;5.60;;;4.70;;
77524;SDS011;66638;50.050;21.124;2023-09-19T15:28:10;7.30;;;4.60;;
77524;SDS011;66638;50.050;21.124;2023-09-19T15:31:02;7.90;;;5.30;;
77524;SDS011;66638;50.050;21.124;2023-09-19T15:33:50;6.90;;;5.30;;
77524;SDS011;66638;50.050;21.124;2023-09-19T15:36:37;7.40;;;5.10;;
77524;SDS011;66638;50.050;21.124;2023-09-19T15:39:29;7.10;;;5.20;;
77524;SDS011;66638;50.050;21.124;2023-09-19T15:42:20;5.70;;;4.70;;
77524;SDS011;66638;50.050;21.124;2023-09-19T15:45:08;6.70;;;4.90;;
77524;SDS011;66638;50.050;21.124;2023-09-19T15:47:56;5.50;;;4.60;;
77524;SDS011;66638;50.050;21.124;2023-09-19T15:50:44;5.80;;;4.70;;
77524;SDS011;66638;50.050;21.124;2023-09-19T15:53:45;8.40;;;5.30;;
77524;SDS011;66638;50.050;21.124;2023-09-19T15:56:35;7.00;;;4.80;;
77524;SDS011;66638;50.050;21.124;2023-09-19T15:59:23;8.20;;;5.30;;
77524;SDS011;66638;50.050;21.124;2023-09-19T16:02:10;7.20;;;6.10;;
77524;SDS011;66638;50.050;21.124;2023-09-19T16:04:58;7.40;;;5.40;;
77524;SDS011;66638;50.050;21.124;2023-09-19T16:07:45;9.30;;;5.90;;
77524;SDS011;66638;50.050;21.124;2023-09-19T16:10:36;6.70;;;5.70;;
77524;SDS011;66638;50.050;21.124;2023-09-19T16:13:25;7.10;;;5.90;;
77524;SDS011;66638;50.050;21.124;2023-09-19T16:16:14;9.10;;;5.70;;
77524;SDS011;66638;50.050;21.124;2023-09-19T16:19:04;8.30;;;5.90;;
77524;SDS011;66638;50.050;21.124;2023-09-19T16:21:54;7.10;;;5.70;;
77524;SDS011;66638;50.050;21.124;2023-09-19T16:24:42;6.40;;;5.00;;
77524;SDS011;66638;50.050;21.124;2023-09-19T16:27:30;6.90;;;5.80;;
77524;SDS011;66638;50.050;21.124;2023-09-19T16:30:17;8.10;;;6.20;;
77524;SDS011;66638;50.050;21.124;2023-09-19T16:33:05;7.40;;;5.90;;
77524;SDS011;66638;50.050;21.124;2023-09-19T16:35:53;7.60;;;5.90;;
77524;SDS011;66638;50.050;21.124;2023-09-19T16:38:41;6.70;;;5.90;;
77524;SDS011;66638;50.050;21.124;2023-09-19T16:41:29;8.00;;;5.70;;
77524;SDS011;66638;50.050;21.124;2023-09-19T16:44:17;8.90;;;6.30;;
77524;SDS011;66638;50.050;21.124;2023-09-19T16:47:07;7.50;;;6.10;;
77524;SDS011;66638;50.050;21.124;2023-09-19T16:49:54;7.80;;;6.00;;
77524;SDS011;66638;50.050;21.124;2023-09-19T16:52:42;7.90;;;6.60;;
77524;SDS011;66638;50.050;21.124;2023-09-19T16:55:29;9.30;;;7.70;;
77524;SDS011;66638;50.050;21.124;2023-09-19T16:58:16;11.60;;;8.00;;
77524;SDS011;66638;50.050;21.124;2023-09-19T17:01:07;8.50;;;7.30;;
77524;SDS011;66638;50.050;21.124;2023-09-19T17:03:58;16.20;;;14.70;;
77524;SDS011;66638;50.050;21.124;2023-09-19T17:06:47;16.10;;;14.40;;
77524;SDS011;66638;50.050;21.124;2023-09-19T17:09:35;13.60;;;10.70;;